22 mei 2022

Tijd Code Weer Temp. Zicht Wolken Wind METAR/SPECI
05:30
V
19 °C 10 km+ 15.000 ft 300°   300° 8 kt METAR LFBC 220330Z AUTO 30008KT 280V340 9999 FEW008 BKN150 BKN170 19/18 Q1013
05:00
V
19 °C 10 km+ - Var   Var 2 kt METAR LFBC 220300Z AUTO VRB02KT CAVOK 19/18 Q1012
04:30
V
20 °C 10 km+ - 230°   230° 4 kt METAR LFBC 220230Z AUTO 23004KT 200V260 CAVOK 20/18 Q1012
04:00
V
20 °C 10 km+ - 210°   210° 7 kt METAR LFBC 220200Z AUTO 21007KT CAVOK 20/19 Q1013
03:30
V
21 °C 10 km+ - 210°   210° 8 kt METAR LFBC 220130Z AUTO 21008KT CAVOK 21/18 Q1013
03:00
V
21 °C 10 km+ - 220°   220° 6 kt METAR LFBC 220100Z AUTO 22006KT CAVOK 21/20 Q1013
02:30
V
21 °C 10 km+ - Var   000° 0 kt METAR LFBC 220030Z AUTO 00000KT CAVOK 21/19 Q1013
02:00
V
22 °C 10 km+ - 030°   030° 4 kt METAR LFBC 220000Z AUTO 03004KT CAVOK 22/20 Q1012
01:30
V
21 °C 10 km+ - 360°   360° 5 kt METAR LFBC 212330Z AUTO 36005KT CAVOK 21/20 Q1013
01:00
V
21 °C 10 km+ - 320°   320° 2 kt METAR LFBC 212300Z AUTO 32002KT CAVOK 21/19 Q1013
00:30
V
22 °C 10 km+ - 050°   050° 2 kt METAR LFBC 212230Z AUTO 05002KT CAVOK 22/19 Q1013
00:00
V
22 °C 10 km+ - Var   Var 2 kt METAR LFBC 212200Z AUTO VRB02KT CAVOK 22/20 Q1014

21 mei 2022

Tijd Code Weer Temp. Zicht Wolken Wind METAR/SPECI
23:30
V
22 °C 10 km+ - Var   000° 0 kt METAR LFBC 212130Z AUTO 00000KT CAVOK 22/19 Q1014
23:00
V
24 °C 10 km+ - 010°   010° 2 kt METAR LFBC 212100Z AUTO 01002KT CAVOK 24/20 Q1014
22:30
V
24 °C 10 km+ - 010°   010° 3 kt METAR LFBC 212030Z AUTO 01003KT CAVOK 24/20 Q1014
22:00
V
25 °C 10 km+ - 010°   010° 2 kt METAR LFBC 212000Z AUTO 01002KT CAVOK 25/20 Q1014
21:30
V
26 °C 10 km+ - 010°   010° 3 kt METAR LFBC 211930Z AUTO 01003KT CAVOK 26/20 Q1014
21:00
V
26 °C 10 km+ - 350°   350° 4 kt METAR LFBC 211900Z AUTO 35004KT CAVOK 26/19 Q1014
20:30
V
27 °C 10 km+ - 020°   020° 4 kt METAR LFBC 211830Z AUTO 02004KT 350V060 CAVOK 27/19 Q1014
20:00
V
28 °C 10 km+ - 010°   010° 6 kt METAR LFBC 211800Z AUTO 01006KT CAVOK 28/19 Q1014
19:30
V
29 °C 10 km+ - 350°   350° 6 kt METAR LFBC 211730Z AUTO 35006KT 310V010 CAVOK 29/19 Q1014
19:00
V
31 °C 10 km+ - 030°   030° 6 kt METAR LFBC 211700Z AUTO 03006KT CAVOK 31/19 Q1014
18:30
V
32 °C 10 km+ - 020°   020° 7 kt METAR LFBC 211630Z AUTO 02007KT CAVOK 32/18 Q1014
18:00
V
32 °C 10 km+ - 080°   080° 6 kt METAR LFBC 211600Z AUTO 08006KT 010V120 CAVOK 32/18 Q1014
17:30
V
32 °C 10 km+ - Var   000° 0 kt METAR LFBC 211530Z AUTO 00000KT CAVOK 32/16 Q1015
17:00
V
33 °C 10 km+ - 100°   100° 4 kt METAR LFBC 211500Z AUTO 10004KT 030V190 CAVOK 33/17 Q1015
16:30
V
33 °C 10 km+ - 100°   100° 5 kt METAR LFBC 211430Z AUTO 10005KT 060V140 CAVOK 33/18 Q1015
16:00
V
32 °C 10 km+ - 100°   100° 6 kt METAR LFBC 211400Z AUTO 10006KT 030V150 CAVOK 32/17 Q1016
15:30
V
31 °C 10 km+ - 050°   050° 5 kt METAR LFBC 211330Z AUTO 05005KT 020V120 CAVOK 31/18 Q1016
15:00
V
31 °C 10 km+ - 080°   080° 4 kt METAR LFBC 211300Z AUTO 08004KT 350V150 CAVOK 31/18 Q1017
14:30
V
30 °C 10 km+ - 100°   100° 5 kt METAR LFBC 211230Z AUTO 10005KT 060V160 CAVOK 30/18 Q1017
14:00
V
30 °C 10 km+ - 090°   090° 7 kt METAR LFBC 211200Z AUTO 09007KT 030V140 CAVOK 30/18 Q1017
13:30
V
28 °C 10 km+ - 080°   080° 7 kt METAR LFBC 211130Z AUTO 08007KT 020V120 CAVOK 28/18 Q1017
13:00
V
28 °C 10 km+ - 070°   070° 7 kt METAR LFBC 211100Z AUTO 07007KT 030V110 CAVOK 28/18 Q1018
12:30
V
26 °C 10 km+ - 040°   040° 7 kt METAR LFBC 211030Z AUTO 04007KT 010V080 CAVOK 26/17 Q1018
12:00
V
26 °C 10 km+ - 060°   060° 9 kt METAR LFBC 211000Z AUTO 06009KT CAVOK 26/17 Q1018
11:30
V
26 °C 10 km+ - 060°   060° 7 kt METAR LFBC 210930Z AUTO 06007KT 020V120 CAVOK 26/17 Q1019
11:00
V
24 °C 10 km+ - 060°   060° 6 kt METAR LFBC 210900Z AUTO 06006KT 020V100 CAVOK 24/16 Q1019
10:30
V
23 °C 10 km+ - 050°   050° 6 kt METAR LFBC 210830Z AUTO 05006KT 020V090 CAVOK 23/15 Q1019
10:00
V
21 °C 10 km+ - 050°   050° 5 kt METAR LFBC 210800Z AUTO 05005KT 010V070 CAVOK 21/14 Q1019
09:30
V
20 °C 10 km+ - 050°   050° 4 kt METAR LFBC 210730Z AUTO 05004KT 020V090 CAVOK 20/14 Q1019
09:00
V
18 °C 10 km+ - 030°   030° 5 kt METAR LFBC 210700Z AUTO 03005KT CAVOK 18/13 Q1020
08:30
V
16 °C 10 km+ - 040°   040° 5 kt METAR LFBC 210630Z AUTO 04005KT CAVOK 16/13 Q1020
08:00
V
15 °C 10 km+ - 030°   030° 5 kt METAR LFBC 210600Z AUTO 03005KT CAVOK 15/13 Q1020
07:30
V
14 °C 10 km+ - 020°   020° 4 kt METAR LFBC 210530Z AUTO 02004KT 9999 FEW035 14/13 Q1020
07:00
V
14 °C 10 km+ - 010°   010° 4 kt METAR LFBC 210500Z AUTO 01004KT CAVOK 14/12 Q1020
06:30
V
14 °C 10 km+ - 020°   020° 4 kt METAR LFBC 210430Z AUTO 02004KT 9999 FEW038 14/13 Q1020
06:00
V
15 °C 10 km+ 3.700 ft 020°   020° 4 kt METAR LFBC 210400Z AUTO 02004KT 9999 OVC037 15/13 Q1021
05:30
V
15 °C 10 km+ 3.600 ft 030°   030° 4 kt METAR LFBC 210330Z AUTO 03004KT 9999 OVC036 15/13 Q1021
05:00
V
15 °C 10 km+ 3.700 ft 020°   020° 5 kt METAR LFBC 210300Z AUTO 02005KT 9999 OVC037 15/13 Q1021
04:30
V
16 °C 10 km+ 4.000 ft 020°   020° 4 kt METAR LFBC 210230Z AUTO 02004KT 9999 OVC040 16/13 Q1022
04:00
V
16 °C 10 km+ 4.100 ft 020°   020° 3 kt METAR LFBC 210200Z AUTO 02003KT 9999 OVC041 16/13 Q1022
03:30
V
16 °C 10 km+ 4.000 ft 030°   030° 4 kt METAR LFBC 210130Z AUTO 03004KT 9999 OVC040 16/13 Q1022
03:00
V
16 °C 10 km+ 4.200 ft 020°   020° 3 kt METAR LFBC 210100Z AUTO 02003KT 9999 OVC042 16/13 Q1023
02:30
V
16 °C 10 km+ 4.300 ft 020°   020° 4 kt METAR LFBC 210030Z AUTO 02004KT 9999 OVC043 16/13 Q1023
02:00
V
15 °C 10 km+ - 020°   020° 4 kt METAR LFBC 210000Z AUTO 02004KT 9999 FEW046 15/13 Q1023
01:30
V
15 °C 10 km+ - 010°   010° 4 kt METAR LFBC 202330Z AUTO 01004KT CAVOK 15/13 Q1023
01:00
V
15 °C 10 km+ - 360°   360° 4 kt METAR LFBC 202300Z AUTO 36004KT CAVOK 15/13 Q1024
00:30
V
16 °C 10 km+ - 350°   350° 4 kt METAR LFBC 202230Z AUTO 35004KT CAVOK 16/12 Q1024
00:00
V
16 °C 10 km+ - 340°   340° 6 kt METAR LFBC 202200Z AUTO 34006KT CAVOK 16/13 Q1024

20 mei 2022

Tijd Code Weer Temp. Zicht Wolken Wind METAR/SPECI
23:30
V
16 °C 10 km+ - 330°   330° 6 kt METAR LFBC 202130Z AUTO 33006KT CAVOK 16/13 Q1024
23:00
V
16 °C 10 km+ - 330°   330° 4 kt METAR LFBC 202100Z AUTO 33004KT CAVOK 16/13 Q1024
22:30
V
17 °C 10 km+ - 330°   330° 4 kt METAR LFBC 202030Z AUTO 33004KT 9999 FEW033 17/13 Q1024
22:00
V
17 °C 10 km+ - 310°   310° 4 kt METAR LFBC 202000Z AUTO 31004KT 9999 SCT032 17/13 Q1024
21:30
V
18 °C 10 km+ - 310°   310° 4 kt METAR LFBC 201930Z AUTO 31004KT 270V340 CAVOK 18/13 Q1024
21:00
V
19 °C 10 km+ - 330°   330° 5 kt METAR LFBC 201900Z AUTO 33005KT 290V360 CAVOK 19/13 Q1024
20:30
V
19 °C 10 km+ - 310°   310° 6 kt METAR LFBC 201830Z AUTO 31006KT 280V340 CAVOK 19/14 Q1024
20:00
V
20 °C 10 km+ - 320°   320° 7 kt METAR LFBC 201800Z AUTO 32007KT 260V340 CAVOK 20/14 Q1024
19:30
V
21 °C 10 km+ - 310°   310° 7 kt METAR LFBC 201730Z AUTO 31007KT 280V340 CAVOK 21/15 Q1024
19:00
V
21 °C 10 km+ - 300°   300° 8 kt METAR LFBC 201700Z AUTO 30008KT 270V330 CAVOK 21/15 Q1024
18:30
V
21 °C 10 km+ - 300°   300° 8 kt METAR LFBC 201630Z AUTO 30008KT 260V330 CAVOK 21/15 Q1024
18:00
V
23 °C 10 km+ - 300°   300° 8 kt METAR LFBC 201600Z AUTO 30008KT 260V330 CAVOK 23/14 Q1023
17:30
V
23 °C 10 km+ - 310°   310° 7 kt METAR LFBC 201530Z AUTO 31007KT 290V360 CAVOK 23/14 Q1023
17:00
V
23 °C 10 km+ - 310°   310° 6 kt METAR LFBC 201500Z AUTO 31006KT 280V350 CAVOK 23/14 Q1023
16:30
V
23 °C 10 km+ 24.000 ft 290°   290° 4 kt METAR LFBC 201430Z AUTO 29004KT 230V020 9999 FEW027 BKN240 23/15 Q1023 NOSIG
16:00
V
23 °C 10 km+ 23.000 ft 280°   280° 6 kt METAR LFBC 201400Z AUTO 28006KT 190V350 9999 FEW024 BKN230 23/15 Q1023 NOSIG
15:30
V
21 °C 10 km+ 23.000 ft 320°   320° 7 kt METAR LFBC 201330Z AUTO 32007KT 260V360 9999 SCT019 BKN230 21/15 Q1023 NOSIG
15:00
V
21 °C 10 km+ 22.000 ft 290°   290° 9 kt METAR LFBC 201300Z AUTO 29009KT 260V330 9999 FEW020 BKN220 21/16 Q1023 NOSIG
14:30
V
21 °C 10 km+ - 270°   270° 7 kt METAR LFBC 201230Z AUTO 27007KT 240V310 CAVOK 21/15 Q1023 NOSIG
14:00
V
21 °C 10 km+ - 270°   270° 8 kt METAR LFBC 201200Z AUTO 27008KT 230V300 CAVOK 21/16 Q1023 NOSIG
13:30
V
21 °C 10 km+ - 280°   280° 8 kt METAR LFBC 201130Z AUTO 28008KT CAVOK 21/16 Q1022 NOSIG
13:00
V
21 °C 10 km+ - 290°   290° 5 kt METAR LFBC 201100Z AUTO 29005KT 250V340 CAVOK 21/15 Q1022 NOSIG
12:30
V
21 °C 10 km+ - 270°   270° 4 kt METAR LFBC 201030Z AUTO 27004KT 190V320 CAVOK 21/16 Q1022 NOSIG
12:00
V
20 °C 10 km+ 21.000 ft 290°   290° 7 kt METAR LFBC 201000Z AUTO 29007KT 260V330 9999 FEW013 OVC210 20/16 Q1022 NOSIG
11:30
M
20 °C 10 km+ 1.100 ft 310°   310° 8 kt METAR LFBC 200930Z AUTO 31008KT 250V330 9999 BKN011 OVC210 20/16 Q1021 BECMG NSC
11:00
I
20 °C 10 km+ 800 ft 280°   280° 9 kt METAR LFBC 200900Z AUTO 28009KT 250V320 9999 BKN008 BKN012 OVC210 20/17 Q1021 BECMG NSC
10:30
V
21 °C 10 km+ - 270°   270° 9 kt METAR LFBC 200830Z AUTO 27009KT CAVOK 21/17 Q1020 NOSIG
10:00
V
21 °C 10 km+ - 250°   250° 7 kt METAR LFBC 200800Z AUTO 25007KT 220V290 CAVOK 21/18 Q1020 BECMG BKN010
09:30
V
21 °C 10 km+ 23.000 ft 230°   230° 6 kt METAR LFBC 200730Z AUTO 23006KT 200V270 9999 FEW007 BKN230 21/19 Q1019 BECMG BKN010
09:00
I
20 °C 10 km+ 600 ft 210°   210° 7 kt METAR LFBC 200700Z AUTO 21007KT 9999 BKN006 20/19 Q1019 BECMG BKN010
08:30
I
19 °C 8 km 500 ft 200°   200° 7 kt METAR LFBC 200630Z AUTO 20007KT 8000 OVC005 19/19 Q1018 BECMG BKN010
08:00
L
19 °C 5 km 400 ft 200°   200° 8 kt METAR LFBC 200600Z AUTO 20008KT 5000 BR OVC004 19/18 Q1018 BECMG BKN010
07:30
I
19 °C 5 km 600 ft 170°   170° 7 kt METAR LFBC 200530Z AUTO 17007KT 5000 BR BKN006 OVC230 19/18 Q1017 BECMG 24010KT BKN010
07:00
V
18 °C 9 km - 180°   180° 6 kt METAR LFBC 200500Z AUTO 18006KT 9000 NSC 18/18 Q1017
06:30
I
16 °C 4,5 km - 130°   130° 4 kt METAR LFBC 200430Z AUTO 13004KT 4500 BR NSC 16/16 Q1016
06:00
M
17 °C 7 km - 150°   150° 4 kt METAR LFBC 200400Z AUTO 15004KT 7000 NSC 17/16 Q1016
05:30
M
16 °C 7 km - 160°   160° 4 kt METAR LFBC 200330Z AUTO 16004KT 7000 NSC 16/15 Q1016
05:00
M
17 °C 6 km - 110°   110° 5 kt METAR LFBC 200300Z AUTO 11005KT 090V150 6000 NSC 17/16 Q1016
04:30
I
18 °C 1,8 km - Var   000° 0 kt METAR LFBC 200230Z AUTO 00000KT 6000 1800 NSC 18/17 Q1016
04:00
L
18 °C 700 m - 120°   120° 3 kt METAR LFBC 200200Z AUTO 12003KT 5000 0700 R24/P2000 BCFG NSC 18/17 Q1016
03:30
L
18 °C 1,1 km - Var   000° 0 kt METAR LFBC 200130Z AUTO 00000KT 3600 1100 R24/P2000 BR NSC 18/17 Q1016
03:00
M
19 °C 6 km - 110°   110° 3 kt METAR LFBC 200100Z AUTO 11003KT 6000 NSC 19/17 Q1016
02:30
V
19 °C 10 km+ - 110°   110° 6 kt METAR LFBC 200030Z AUTO 11006KT CAVOK 19/18 Q1016
02:00
V
20 °C 10 km+ - 070°   070° 4 kt METAR LFBC 200000Z AUTO 07004KT CAVOK 20/18 Q1017
01:30
V
20 °C 10 km+ - 030°   030° 3 kt METAR LFBC 192330Z AUTO 03003KT 360V060 CAVOK 20/19 Q1017
01:00
V
20 °C 10 km+ - 020°   020° 4 kt METAR LFBC 192300Z AUTO 02004KT CAVOK 20/18 Q1017
00:30
V
20 °C 10 km+ - 360°   360° 4 kt METAR LFBC 192230Z AUTO 36004KT CAVOK 20/18 Q1017
00:00
V
20 °C 10 km+ - 010°   010° 4 kt METAR LFBC 192200Z AUTO 01004KT CAVOK 20/18 Q1017 TEMPO VRB15G35KT 3000 TSRA BKN090CB
Oudere gegevens

Installeer onze app

Gemakkelijke toegang tot al het luchtvaartweer op je mobiele telefoon en tablet.
Met veel functies die niet op de website beschikbaar zijn, zoals offline ondersteuning en een persoonlijke lijst van vliegvelden.

Met cookies volgen wij en derde partijen jouw internetgedrag binnen onze site. Als je verdergaat gaan we ervan uit dat je dit goedvindt. Meer info